Time;durP1;ratioP1;P1;durP2;ratioP2;P2;SDS_P1;SDS_P2;PMS_P1;PMS_P2;Temp;Humidity;BMP_temperature;BMP_pressure;BME280_temperature;BME280_humidity;BME280_pressure;Samples;Min_cycle;Max_cycle;Signal;HPM_P1;HPM_P2
2021/08/01 00:00:09;;;;;;;142.53;136.70;;;;;;;;;;5051390;28;20533;-68
2021/08/01 00:02:36;;;;;;;129.33;124.03;;;;;;;;;;5050510;28;20483;-64
2021/08/01 00:05:03;;;;;;;129.63;124.30;;;;;;;;;;5050545;28;20847;-65
2021/08/01 00:07:30;;;;;;;125.30;120.10;;;;;;;;;;5051758;28;20447;-65
2021/08/01 00:10:02;;;;;;;124.77;119.47;;;;;;;;;;5050789;28;20947;-65
2021/08/01 00:12:29;;;;;;;124.40;119.17;;;;;;;;;;5050737;28;20476;-67
2021/08/01 00:14:56;;;;;;;124.00;118.80;;;;;;;;;;5051017;28;20448;-68
2021/08/01 00:17:23;;;;;;;118.80;113.90;;;;;;;;;;5049811;28;20462;-68
2021/08/01 00:19:51;;;;;;;109.60;105.00;;;;;;;;;;5051403;28;20444;-67
2021/08/01 00:22:18;;;;;;;104.70;100.20;;;;;;;;;;5031212;28;21005;-68
2021/08/01 00:24:45;;;;;;;96.17;91.97;;;;;;;;;;5046166;28;20453;-68
2021/08/01 00:27:14;;;;;;;95.87;91.77;;;;;;;;;;5050959;28;20456;-68
2021/08/01 00:29:41;;;;;;;99.40;94.80;;;;;;;;;;5050828;28;20939;-65
2021/08/01 00:32:08;;;;;;;100.27;96.07;;;;;;;;;;5049932;28;20464;-66
2021/08/01 00:34:36;;;;;;;99.37;95.10;;;;;;;;;;5043793;28;20452;-65
2021/08/01 00:37:03;;;;;;;97.70;92.63;;;;;;;;;;5050786;28;20820;-65
2021/08/01 00:39:30;;;;;;;103.23;98.63;;;;;;;;;;5049420;28;20458;-65
2021/08/01 00:41:57;;;;;;;110.57;104.97;;;;;;;;;;5038509;28;20468;-65
2021/08/01 00:44:26;;;;;;;110.13;105.13;;;;;;;;;;5037543;28;20470;-65
2021/08/01 00:46:53;;;;;;;103.03;98.53;;;;;;;;;;5046259;28;20481;-65
2021/08/01 00:49:20;;;;;;;110.40;105.73;;;;;;;;;;5053390;28;20452;-65
2021/08/01 00:51:47;;;;;;;109.27;104.10;;;;;;;;;;5049768;28;20451;-66
2021/08/01 00:54:15;;;;;;;97.90;93.50;;;;;;;;;;5054440;28;20457;-65
2021/08/01 00:56:42;;;;;;;127.77;122.27;;;;;;;;;;5053975;28;20458;-65
2021/08/01 00:59:09;;;;;;;116.67;111.13;;;;;;;;;;5042268;28;20460;-65
2021/08/01 01:01:40;;;;;;;119.17;113.93;;;;;;;;;;5034859;28;20452;-64
2021/08/01 01:04:12;;;;;;;120.40;115.50;;;;;;;;;;5060533;22;20489;-74
2021/08/01 01:06:44;;;;;;;121.83;116.93;;;;;;;;;;5036636;28;20520;-75
2021/08/01 01:09:19;;;;;;;114.17;109.37;;;;;;;;;;5036430;28;20799;-74
2021/08/01 01:11:48;;;;;;;104.00;99.50;;;;;;;;;;5049424;28;20800;-74
2021/08/01 01:14:16;;;;;;;109.07;104.37;;;;;;;;;;5048810;28;20472;-73
2021/08/01 01:16:47;;;;;;;115.40;110.70;;;;;;;;;;5054377;28;20443;-75
2021/08/01 01:19:19;;;;;;;114.70;109.80;;;;;;;;;;5046296;28;20451;-74
2021/08/01 01:21:49;;;;;;;115.73;110.93;;;;;;;;;;5053985;28;20444;-74
2021/08/01 01:24:17;;;;;;;103.77;99.47;;;;;;;;;;5045090;28;20843;-74
2021/08/01 01:26:48;;;;;;;100.60;96.30;;;;;;;;;;5053819;28;20485;-75
2021/08/01 01:29:19;;;;;;;107.70;102.90;;;;;;;;;;5046249;28;20440;-74
2021/08/01 01:32:04;;;;;;;105.73;101.10;;;;;;;;;;5050613;28;20451;-74
2021/08/01 01:34:40;;;;;;;105.70;101.20;;;;;;;;;;5041542;28;21005;-73
2021/08/01 01:37:11;;;;;;;104.33;100.03;;;;;;;;;;5053361;28;20836;-72
2021/08/01 01:39:39;;;;;;;86.67;82.83;;;;;;;;;;5042994;28;20440;-73
2021/08/01 01:42:07;;;;;;;94.20;90.20;;;;;;;;;;5053029;28;20957;-73
2021/08/01 01:44:36;;;;;;;94.23;90.13;;;;;;;;;;5053343;28;20471;-73
2021/08/01 01:47:03;;;;;;;91.57;87.67;;;;;;;;;;5053788;28;20487;-74
2021/08/01 01:49:30;;;;;;;87.43;83.63;;;;;;;;;;5053626;28;20456;-73
2021/08/01 01:51:58;;;;;;;83.77;79.90;;;;;;;;;;5055619;28;20451;-73
2021/08/01 01:54:27;;;;;;;78.60;75.07;;;;;;;;;;5059936;28;20472;-75
2021/08/01 01:56:55;;;;;;;80.47;76.77;;;;;;;;;;5062880;28;20467;-72
2021/08/01 01:59:22;;;;;;;83.50;79.90;;;;;;;;;;5053852;28;20943;-72
2021/08/01 02:01:49;;;;;;;73.30;69.90;;;;;;;;;;5053393;28;20444;-73
2021/08/01 02:04:17;;;;;;;68.30;65.03;;;;;;;;;;5052914;28;20498;-73
2021/08/01 02:06:44;;;;;;;64.77;61.57;;;;;;;;;;5053275;28;20491;-72
2021/08/01 02:09:15;;;;;;;63.00;59.90;;;;;;;;;;5052781;28;20456;-73
2021/08/01 02:11:46;;;;;;;60.53;57.33;;;;;;;;;;5052263;28;20454;-73
2021/08/01 02:14:15;;;;;;;56.27;53.10;;;;;;;;;;5053156;28;20478;-73
2021/08/01 02:16:44;;;;;;;55.03;52.20;;;;;;;;;;5038283;28;20451;-73
2021/08/01 02:19:12;;;;;;;55.33;52.50;;;;;;;;;;5052890;28;20448;-73
2021/08/01 02:21:39;;;;;;;53.83;51.13;;;;;;;;;;5052576;28;20452;-73
2021/08/01 02:24:07;;;;;;;51.40;48.77;;;;;;;;;;5052964;28;20472;-73
2021/08/01 02:26:35;;;;;;;52.33;49.53;;;;;;;;;;5052315;28;20484;-73
2021/08/01 02:29:05;;;;;;;51.70;49.00;;;;;;;;;;5052901;28;20832;-74
2021/08/01 02:31:32;;;;;;;52.60;50.00;;;;;;;;;;5052926;28;20458;-74
2021/08/01 02:34:00;;;;;;;58.43;55.50;;;;;;;;;;5053023;28;20467;-74
2021/08/01 02:36:27;;;;;;;59.83;56.83;;;;;;;;;;5052435;28;20444;-74
2021/08/01 02:38:56;;;;;;;55.57;52.67;;;;;;;;;;5051998;28;20452;-74
2021/08/01 02:41:28;;;;;;;62.77;59.87;;;;;;;;;;5052527;28;20460;-74
2021/08/01 02:43:55;;;;;;;55.60;52.77;;;;;;;;;;5038332;28;20478;-74
2021/08/01 02:46:25;;;;;;;53.00;50.30;;;;;;;;;;5052297;28;20483;-74
2021/08/01 02:48:53;;;;;;;52.17;49.57;;;;;;;;;;5052206;28;20970;-74
2021/08/01 02:51:21;;;;;;;55.43;52.53;;;;;;;;;;5051306;28;20977;-74
2021/08/01 02:53:48;;;;;;;58.57;55.73;;;;;;;;;;5052166;28;20482;-74
2021/08/01 02:56:20;;;;;;;50.97;48.37;;;;;;;;;;5052600;28;20811;-74
2021/08/01 02:58:48;;;;;;;55.87;52.90;;;;;;;;;;5051888;28;20444;-73
2021/08/01 03:01:16;;;;;;;63.57;60.47;;;;;;;;;;5052125;28;20447;-73
2021/08/01 03:03:45;;;;;;;63.20;59.60;;;;;;;;;;5051324;28;20468;-73
2021/08/01 03:06:14;;;;;;;69.83;66.47;;;;;;;;;;5052522;28;20482;-73
2021/08/01 03:08:41;;;;;;;71.13;67.83;;;;;;;;;;5051540;28;20458;-74
2021/08/01 03:11:09;;;;;;;63.00;59.53;;;;;;;;;;5051260;28;20451;-74
2021/08/01 03:13:36;;;;;;;57.67;54.33;;;;;;;;;;5051782;28;20452;-73
2021/08/01 03:16:03;;;;;;;71.63;67.83;;;;;;;;;;5051826;28;20444;-73
2021/08/01 03:18:30;;;;;;;69.73;66.23;;;;;;;;;;5051458;28;20456;-73
2021/08/01 03:20:58;;;;;;;68.17;64.77;;;;;;;;;;5056223;28;20454;-73
2021/08/01 03:23:25;;;;;;;70.53;67.03;;;;;;;;;;5058618;28;20454;-73
2021/08/01 03:25:52;;;;;;;64.20;60.83;;;;;;;;;;5057444;28;20526;-73
2021/08/01 03:28:20;;;;;;;63.70;60.50;;;;;;;;;;5052526;28;20931;-73
2021/08/01 03:30:47;;;;;;;56.27;53.37;;;;;;;;;;5035862;28;20455;-73
2021/08/01 03:33:14;;;;;;;61.43;58.43;;;;;;;;;;5051970;28;20462;-74
2021/08/01 03:35:41;;;;;;;62.40;59.10;;;;;;;;;;5051838;28;20490;-74
2021/08/01 03:38:09;;;;;;;62.87;59.87;;;;;;;;;;5050992;28;20444;-73
2021/08/01 03:40:36;;;;;;;66.27;62.97;;;;;;;;;;5051041;28;20451;-74
2021/08/01 03:43:04;;;;;;;61.80;58.70;;;;;;;;;;5051357;28;20463;-74
2021/08/01 03:45:31;;;;;;;56.47;53.77;;;;;;;;;;5051133;28;20470;-74
2021/08/01 03:47:58;;;;;;;54.07;51.27;;;;;;;;;;5050779;28;20482;-74
2021/08/01 03:50:25;;;;;;;51.10;48.50;;;;;;;;;;5051763;28;20448;-73
2021/08/01 03:52:52;;;;;;;48.00;45.50;;;;;;;;;;5051339;28;20939;-72
2021/08/01 03:55:20;;;;;;;51.00;48.50;;;;;;;;;;5051214;28;20478;-73
2021/08/01 03:57:47;;;;;;;51.40;48.50;;;;;;;;;;5051421;28;20458;-73
2021/08/01 04:00:15;;;;;;;49.00;46.43;;;;;;;;;;5049913;28;20455;-73
2021/08/01 04:02:42;;;;;;;50.93;48.33;;;;;;;;;;5051244;28;20458;-73
2021/08/01 04:05:09;;;;;;;50.47;47.87;;;;;;;;;;5051160;28;20479;-74
2021/08/01 04:07:37;;;;;;;54.40;51.50;;;;;;;;;;5050824;28;20565;-74
2021/08/01 04:10:04;;;;;;;56.70;53.70;;;;;;;;;;5050968;28;20459;-73
2021/08/01 04:12:33;;;;;;;59.80;56.80;;;;;;;;;;5050296;28;20826;-73
2021/08/01 04:15:00;;;;;;;57.87;54.87;;;;;;;;;;5050990;28;20471;-72
2021/08/01 04:17:29;;;;;;;54.10;51.10;;;;;;;;;;5051304;28;20448;-72
2021/08/01 04:19:56;;;;;;;51.07;48.47;;;;;;;;;;5040192;28;20462;-72
2021/08/01 04:22:25;;;;;;;49.97;47.40;;;;;;;;;;5051271;28;20578;-72
2021/08/01 04:24:52;;;;;;;47.80;45.10;;;;;;;;;;5055108;28;20471;-72
2021/08/01 04:27:19;;;;;;;44.30;42.00;;;;;;;;;;5054601;28;20487;-72
2021/08/01 04:29:48;;;;;;;42.63;40.23;;;;;;;;;;5054962;28;20796;-73
2021/08/01 04:32:15;;;;;;;44.13;41.80;;;;;;;;;;5054367;28;20877;-73
2021/08/01 04:34:42;;;;;;;46.93;44.37;;;;;;;;;;5054279;28;20470;-73
2021/08/01 04:37:09;;;;;;;46.40;44.10;;;;;;;;;;5054416;28;20447;-73
2021/08/01 04:39:36;;;;;;;42.20;39.90;;;;;;;;;;5053792;28;20455;-73
2021/08/01 04:42:03;;;;;;;42.83;40.40;;;;;;;;;;5054715;28;20454;-73
2021/08/01 04:44:30;;;;;;;42.70;40.40;;;;;;;;;;5054201;28;20847;-73
2021/08/01 04:46:59;;;;;;;40.90;38.77;;;;;;;;;;5054671;28;20490;-74
2021/08/01 04:49:26;;;;;;;43.07;40.50;;;;;;;;;;5053590;28;20980;-74
2021/08/01 04:51:53;;;;;;;42.80;40.10;;;;;;;;;;5054976;28;20452;-74
2021/08/01 04:54:20;;;;;;;44.10;41.67;;;;;;;;;;5054781;28;20982;-74
2021/08/01 04:56:47;;;;;;;52.27;48.97;;;;;;;;;;5054080;28;20458;-74
2021/08/01 04:59:14;;;;;;;53.37;50.20;;;;;;;;;;5054764;28;20459;-74
2021/08/01 05:01:42;;;;;;;52.17;49.37;;;;;;;;;;5054358;28;20819;-73
2021/08/01 05:04:11;;;;;;;54.10;50.97;;;;;;;;;;5054047;28;20471;-73
2021/08/01 05:06:38;;;;;;;56.13;53.10;;;;;;;;;;5053663;28;20509;-73
2021/08/01 05:09:05;;;;;;;49.80;46.40;;;;;;;;;;5054198;28;20458;-74
2021/08/01 05:11:32;;;;;;;50.40;47.53;;;;;;;;;;5054182;28;20458;-74
2021/08/01 05:13:59;;;;;;;47.13;44.53;;;;;;;;;;5054298;28;20471;-74
2021/08/01 05:16:26;;;;;;;45.80;43.10;;;;;;;;;;5053608;28;20962;-73
2021/08/01 05:18:53;;;;;;;44.57;41.73;;;;;;;;;;5053704;28;20466;-73
2021/08/01 05:21:22;;;;;;;41.63;38.70;;;;;;;;;;5053945;28;20444;-73
2021/08/01 05:23:49;;;;;;;46.90;44.10;;;;;;;;;;5053593;28;20555;-73
2021/08/01 05:26:16;;;;;;;47.87;45.07;;;;;;;;;;5053636;28;20444;-74
2021/08/01 05:28:43;;;;;;;47.17;43.80;;;;;;;;;;5053757;28;20501;-74
2021/08/01 05:31:11;;;;;;;47.33;44.73;;;;;;;;;;5037938;28;20460;-74
2021/08/01 05:33:38;;;;;;;49.90;47.20;;;;;;;;;;5054201;28;20550;-74
2021/08/01 05:36:08;;;;;;;46.30;43.50;;;;;;;;;;5053510;28;20451;-74
2021/08/01 05:38:37;;;;;;;45.57;43.07;;;;;;;;;;5054229;28;20452;-74
2021/08/01 05:41:04;;;;;;;47.00;44.40;;;;;;;;;;5053557;28;20448;-74
2021/08/01 05:43:31;;;;;;;47.17;44.67;;;;;;;;;;5053988;28;20447;-74
2021/08/01 05:45:58;;;;;;;42.57;40.17;;;;;;;;;;5053467;28;20542;-74
2021/08/01 05:48:25;;;;;;;44.90;42.40;;;;;;;;;;5054073;28;20497;-74
2021/08/01 05:50:52;;;;;;;47.57;44.77;;;;;;;;;;5053128;28;20841;-75
2021/08/01 05:53:21;;;;;;;47.23;44.83;;;;;;;;;;5053144;28;20915;-74
2021/08/01 05:55:50;;;;;;;50.10;47.17;;;;;;;;;;5053910;28;20475;-73
2021/08/01 05:58:17;;;;;;;46.30;43.50;;;;;;;;;;5053267;28;20458;-73
2021/08/01 06:00:44;;;;;;;44.77;41.93;;;;;;;;;;5053484;28;20452;-73
2021/08/01 06:03:11;;;;;;;45.67;42.97;;;;;;;;;;5053054;28;20455;-73
2021/08/01 06:05:38;;;;;;;42.83;40.13;;;;;;;;;;5053826;28;20475;-73
2021/08/01 06:08:05;;;;;;;46.73;44.03;;;;;;;;;;5053381;28;21033;-73
2021/08/01 06:10:33;;;;;;;47.40;44.80;;;;;;;;;;5053680;28;20969;-73
2021/08/01 06:13:01;;;;;;;43.13;40.43;;;;;;;;;;5053518;28;20452;-73
2021/08/01 06:15:28;;;;;;;46.37;43.67;;;;;;;;;;5053074;28;20472;-70
2021/08/01 06:17:55;;;;;;;48.53;45.50;;;;;;;;;;5052786;28;20454;-72
2021/08/01 06:20:22;;;;;;;45.33;42.63;;;;;;;;;;5052765;28;20452;-71
2021/08/01 06:22:49;;;;;;;40.47;38.00;;;;;;;;;;5053138;28;20466;-72
2021/08/01 06:25:16;;;;;;;41.40;39.07;;;;;;;;;;5052585;28;20483;-72
2021/08/01 06:27:44;;;;;;;37.67;35.47;;;;;;;;;;5052842;28;20484;-71
2021/08/01 06:30:13;;;;;;;37.50;35.10;;;;;;;;;;5052807;28;20518;-72
2021/08/01 06:32:40;;;;;;;36.30;34.10;;;;;;;;;;5046584;28;21245;-72
2021/08/01 06:35:07;;;;;;;35.13;32.93;;;;;;;;;;5032165;28;20487;-72
2021/08/01 06:37:34;;;;;;;35.70;33.37;;;;;;;;;;5038866;28;20448;-72
2021/08/01 06:40:02;;;;;;;34.07;31.90;;;;;;;;;;5052468;28;20453;-72
2021/08/01 06:42:29;;;;;;;32.63;30.73;;;;;;;;;;5052644;28;20474;-72
2021/08/01 06:44:56;;;;;;;32.47;30.30;;;;;;;;;;5036478;28;20572;-72
2021/08/01 06:47:24;;;;;;;32.17;30.07;;;;;;;;;;5042798;28;20549;-72
2021/08/01 06:49:51;;;;;;;31.23;29.27;;;;;;;;;;5052564;28;20444;-72
2021/08/01 06:52:18;;;;;;;32.87;30.77;;;;;;;;;;5046674;28;20473;-73
2021/08/01 06:54:45;;;;;;;31.57;29.60;;;;;;;;;;5022516;28;20472;-72
2021/08/01 06:57:13;;;;;;;32.03;30.13;;;;;;;;;;5032708;28;20476;-72
2021/08/01 06:59:40;;;;;;;33.23;30.83;;;;;;;;;;5037472;28;20458;-72
2021/08/01 07:02:07;;;;;;;32.60;30.60;;;;;;;;;;5048787;28;20967;-72
2021/08/01 07:04:35;;;;;;;33.07;31.00;;;;;;;;;;5044014;28;20480;-72
2021/08/01 07:07:02;;;;;;;33.17;31.17;;;;;;;;;;5049257;28;20486;-72
2021/08/01 07:09:29;;;;;;;33.30;31.10;;;;;;;;;;5079622;22;20500;-66
2021/08/01 07:11:57;;;;;;;32.60;30.70;;;;;;;;;;5071119;28;20467;-66
2021/08/01 07:14:24;;;;;;;30.17;28.40;;;;;;;;;;5072458;28;20478;-66
2021/08/01 07:16:51;;;;;;;31.57;29.57;;;;;;;;;;5071253;28;20455;-66
2021/08/01 07:19:18;;;;;;;31.00;29.20;;;;;;;;;;5072226;28;20475;-66
2021/08/01 07:21:48;;;;;;;31.60;29.60;;;;;;;;;;5060241;28;20447;-66
2021/08/01 07:24:15;;;;;;;30.63;28.83;;;;;;;;;;5064444;28;20462;-63
2021/08/01 07:26:42;;;;;;;30.97;29.10;;;;;;;;;;5052858;28;20478;-63
2021/08/01 07:29:09;;;;;;;33.10;31.20;;;;;;;;;;5051859;28;20566;-63
2021/08/01 07:31:36;;;;;;;31.30;29.43;;;;;;;;;;5051886;28;20464;-63
2021/08/01 07:34:03;;;;;;;32.27;30.30;;;;;;;;;;5052039;28;20456;-62
2021/08/01 07:36:30;;;;;;;39.80;37.17;;;;;;;;;;5052234;28;20470;-61
2021/08/01 07:38:59;;;;;;;46.87;43.97;;;;;;;;;;5065672;28;20461;-60
2021/08/01 07:41:26;;;;;;;55.30;51.80;;;;;;;;;;5062673;28;20451;-61
2021/08/01 07:43:53;;;;;;;55.07;51.87;;;;;;;;;;5064825;28;20473;-61
2021/08/01 07:46:21;;;;;;;56.07;53.07;;;;;;;;;;5069828;28;20546;-65
2021/08/01 07:48:48;;;;;;;53.83;50.63;;;;;;;;;;5060394;28;20506;-66
2021/08/01 07:51:15;;;;;;;76.20;72.20;;;;;;;;;;5062978;28;20475;-66
2021/08/01 07:53:42;;;;;;;74.23;70.23;;;;;;;;;;5051911;28;20458;-66
2021/08/01 07:56:10;;;;;;;84.33;80.13;;;;;;;;;;5061197;28;21263;-65
2021/08/01 07:58:38;;;;;;;73.60;69.80;;;;;;;;;;5061938;28;20939;-64
2021/08/01 08:01:05;;;;;;;62.60;59.20;;;;;;;;;;5051579;28;20479;-64
2021/08/01 08:03:32;;;;;;;55.20;52.20;;;;;;;;;;5061189;28;20447;-63
2021/08/01 08:06:01;;;;;;;47.40;44.70;;;;;;;;;;5051784;28;20522;-63
2021/08/01 08:08:28;;;;;;;47.83;45.23;;;;;;;;;;5051227;28;20570;-64
2021/08/01 08:10:55;;;;;;;45.43;42.63;;;;;;;;;;5051083;28;20476;-64
2021/08/01 08:13:24;;;;;;;44.73;42.27;;;;;;;;;;5051588;28;20935;-64
2021/08/01 08:15:51;;;;;;;44.63;42.13;;;;;;;;;;5051294;28;20443;-64
2021/08/01 08:18:18;;;;;;;49.13;46.30;;;;;;;;;;5051131;28;20448;-64
2021/08/01 08:20:45;;;;;;;44.17;41.50;;;;;;;;;;5050506;28;20472;-64
2021/08/01 08:23:12;;;;;;;42.70;39.97;;;;;;;;;;5050265;28;20981;-60
2021/08/01 08:25:40;;;;;;;44.07;41.20;;;;;;;;;;5051194;28;20462;-64
2021/08/01 08:28:07;;;;;;;49.30;45.97;;;;;;;;;;5051451;28;20502;-64
2021/08/01 08:30:35;;;;;;;44.60;42.10;;;;;;;;;;5051318;28;20463;-64
2021/08/01 08:33:02;;;;;;;47.60;44.80;;;;;;;;;;5050853;28;20451;-64
2021/08/01 08:35:29;;;;;;;49.77;46.77;;;;;;;;;;5051012;28;20470;-64
2021/08/01 08:37:58;;;;;;;49.63;46.93;;;;;;;;;;5050955;28;20454;-64
2021/08/01 08:40:25;;;;;;;55.17;52.07;;;;;;;;;;5051341;28;20483;-64
2021/08/01 08:42:53;;;;;;;54.50;51.53;;;;;;;;;;5051073;28;20478;-64
2021/08/01 08:45:20;;;;;;;53.90;50.90;;;;;;;;;;5051288;28;20455;-64
2021/08/01 08:47:49;;;;;;;54.47;51.57;;;;;;;;;;5050675;28;20494;-64
2021/08/01 08:50:17;;;;;;;56.90;53.90;;;;;;;;;;5050738;28;20482;-64
2021/08/01 08:52:44;;;;;;;52.80;49.80;;;;;;;;;;5050695;28;20456;-64
2021/08/01 08:55:13;;;;;;;50.93;48.03;;;;;;;;;;5050718;28;20462;-64
2021/08/01 08:57:42;;;;;;;49.07;46.33;;;;;;;;;;5050552;28;20487;-64
2021/08/01 09:00:10;;;;;;;47.67;44.87;;;;;;;;;;5050274;28;20816;-64
2021/08/01 09:02:38;;;;;;;45.83;43.33;;;;;;;;;;5050815;28;20958;-65
2021/08/01 09:05:08;;;;;;;46.80;44.07;;;;;;;;;;5050532;28;20501;-64
2021/08/01 09:07:35;;;;;;;44.20;41.70;;;;;;;;;;5050070;28;20455;-64
2021/08/01 09:10:02;;;;;;;43.87;41.27;;;;;;;;;;5053790;28;20479;-65
2021/08/01 09:12:29;;;;;;;43.50;41.00;;;;;;;;;;5054427;28;20479;-65
2021/08/01 09:15:13;;;;;;;43.97;41.53;;;;;;;;;;5054928;28;20463;-64
2021/08/01 09:17:41;;;;;;;44.70;42.20;;;;;;;;;;5063357;28;20447;-64
2021/08/01 09:20:16;;;;;;;47.00;44.40;;;;;;;;;;5074851;28;20465;-64
2021/08/01 09:22:44;;;;;;;51.37;48.57;;;;;;;;;;5073474;28;20446;-65
2021/08/01 09:25:18;;;;;;;52.27;49.27;;;;;;;;;;5075044;28;20496;-65
2021/08/01 09:27:45;;;;;;;46.70;44.00;;;;;;;;;;5078665;28;20829;-64
2021/08/01 09:30:13;;;;;;;44.10;41.70;;;;;;;;;;5083765;28;20467;-65
2021/08/01 09:32:47;;;;;;;42.83;40.40;;;;;;;;;;5076895;28;20469;-61
2021/08/01 09:35:18;;;;;;;63.90;60.23;;;;;;;;;;5073628;28;20808;-65
2021/08/01 09:37:55;;;;;;;71.53;67.37;;;;;;;;;;5074762;28;20451;-62
2021/08/01 09:40:22;;;;;;;61.73;58.03;;;;;;;;;;5062261;28;20459;-66
2021/08/01 09:42:49;;;;;;;52.77;49.87;;;;;;;;;;5054686;28;20826;-66
2021/08/01 09:45:17;;;;;;;47.83;45.10;;;;;;;;;;5059482;28;20451;-64
2021/08/01 09:47:45;;;;;;;48.90;46.00;;;;;;;;;;5070707;28;20801;-62
2021/08/01 09:50:13;;;;;;;47.07;44.57;;;;;;;;;;5070885;28;20485;-65
2021/08/01 09:52:42;;;;;;;46.30;43.70;;;;;;;;;;5068152;28;20828;-65
2021/08/01 09:55:17;;;;;;;47.37;44.90;;;;;;;;;;5054350;28;20467;-65
2021/08/01 09:57:50;;;;;;;44.37;41.80;;;;;;;;;;5053721;28;20440;-62
2021/08/01 10:00:17;;;;;;;37.97;35.93;;;;;;;;;;5054137;28;20822;-62
2021/08/01 10:02:44;;;;;;;37.80;35.70;;;;;;;;;;5065325;28;20451;-63
2021/08/01 10:05:15;;;;;;;36.43;34.43;;;;;;;;;;5073072;28;20462;-62
2021/08/01 10:07:44;;;;;;;31.90;30.20;;;;;;;;;;5066277;28;20474;-62
2021/08/01 10:10:19;;;;;;;33.03;31.23;;;;;;;;;;5053713;28;20475;-62
2021/08/01 10:12:46;;;;;;;30.83;29.03;;;;;;;;;;5056071;28;20467;-62
2021/08/01 10:15:13;;;;;;;29.37;27.77;;;;;;;;;;5053436;28;20989;-62
2021/08/01 10:17:41;;;;;;;30.37;28.77;;;;;;;;;;5052799;28;20470;-63
2021/08/01 10:20:09;;;;;;;29.93;28.33;;;;;;;;;;5052414;28;20471;-62
2021/08/01 10:22:38;;;;;;;34.40;32.40;;;;;;;;;;5053719;28;20452;-62
2021/08/01 10:25:10;;;;;;;30.10;28.20;;;;;;;;;;5053346;28;20451;-62
2021/08/01 10:27:39;;;;;;;30.60;29.00;;;;;;;;;;5052974;28;20970;-62
2021/08/01 10:30:07;;;;;;;31.80;30.10;;;;;;;;;;5058730;28;20529;-62
2021/08/01 10:32:36;;;;;;;30.20;28.60;;;;;;;;;;5068327;28;20946;-65
2021/08/01 10:35:06;;;;;;;31.87;30.27;;;;;;;;;;5053220;28;21045;-62
2021/08/01 10:37:36;;;;;;;31.17;29.50;;;;;;;;;;5072930;28;20461;-63
2021/08/01 10:40:04;;;;;;;31.43;29.53;;;;;;;;;;5059387;28;20472;-62
2021/08/01 10:42:33;;;;;;;31.27;29.57;;;;;;;;;;5053210;28;20455;-62
2021/08/01 10:45:00;;;;;;;28.17;26.67;;;;;;;;;;5053875;28;20882;-62
2021/08/01 10:47:27;;;;;;;28.60;27.00;;;;;;;;;;5059752;28;20459;-62
2021/08/01 10:49:55;;;;;;;26.57;25.03;;;;;;;;;;5066641;28;20500;-64
2021/08/01 10:52:22;;;;;;;25.80;24.50;;;;;;;;;;5071857;28;20454;-65
2021/08/01 10:54:56;;;;;;;26.03;24.70;;;;;;;;;;5072979;28;20516;-68
2021/08/01 10:57:24;;;;;;;27.20;25.70;;;;;;;;;;5072428;28;20462;-64
2021/08/01 11:00:07;;;;;;;27.90;26.20;;;;;;;;;;5072853;28;20549;-63
2021/08/01 11:02:35;;;;;;;25.67;24.27;;;;;;;;;;5061728;28;20463;-64
2021/08/01 11:05:16;;;;;;;25.77;24.27;;;;;;;;;;5051939;28;20462;-63
2021/08/01 11:08:01;;;;;;;25.57;24.17;;;;;;;;;;5051438;28;20455;-63
2021/08/01 11:10:29;;;;;;;25.37;23.97;;;;;;;;;;5051105;28;21021;-63
2021/08/01 11:12:56;;;;;;;25.67;24.37;;;;;;;;;;5052740;28;20452;-63
2021/08/01 11:15:43;;;;;;;26.17;24.67;;;;;;;;;;5052456;28;20448;-63
2021/08/01 11:18:11;;;;;;;25.67;24.17;;;;;;;;;;5063731;28;20848;-63
2021/08/01 11:20:50;;;;;;;26.77;25.17;;;;;;;;;;5071603;28;20974;-63
2021/08/01 11:23:18;;;;;;;25.70;24.37;;;;;;;;;;5071355;28;20454;-63
2021/08/01 11:26:00;;;;;;;26.00;24.70;;;;;;;;;;5072254;28;20457;-64
2021/08/01 11:28:29;;;;;;;25.20;23.90;;;;;;;;;;5056777;28;20459;-63
2021/08/01 11:31:10;;;;;;;26.80;25.40;;;;;;;;;;5051651;28;20472;-63
2021/08/01 11:33:39;;;;;;;26.83;25.43;;;;;;;;;;5054951;28;20451;-64
2021/08/01 11:36:21;;;;;;;25.10;23.80;;;;;;;;;;5053850;28;20935;-63
2021/08/01 11:39:07;;;;;;;26.30;24.90;;;;;;;;;;5049716;28;20440;-63
2021/08/01 11:41:39;;;;;;;26.67;25.07;;;;;;;;;;5051700;28;20448;-64
2021/08/01 11:44:07;;;;;;;25.13;23.83;;;;;;;;;;5070745;28;20516;-63
2021/08/01 11:47:04;;;;;;;27.40;25.70;;;;;;;;;;5058101;28;20443;-63
2021/08/01 11:49:34;;;;;;;28.57;26.77;;;;;;;;;;4970155;28;21062;-64
2021/08/01 11:52:02;;;;;;;28.93;27.17;;;;;;;;;;5039850;28;20458;-63
2021/08/01 11:54:30;;;;;;;29.27;27.57;;;;;;;;;;5051695;28;20448;-64
2021/08/01 11:56:59;;;;;;;28.97;27.17;;;;;;;;;;5051775;28;20452;-64
2021/08/01 11:59:27;;;;;;;30.40;28.70;;;;;;;;;;5054226;28;20474;-64
2021/08/01 12:01:55;;;;;;;29.07;27.47;;;;;;;;;;5071466;28;20435;-64
2021/08/01 12:04:22;;;;;;;28.30;26.70;;;;;;;;;;5066514;28;20455;-64
2021/08/01 12:06:52;;;;;;;28.13;26.63;;;;;;;;;;5071161;28;20446;-64
2021/08/01 12:09:19;;;;;;;27.40;25.90;;;;;;;;;;5067343;28;20485;-63
2021/08/01 12:11:47;;;;;;;26.50;25.10;;;;;;;;;;5064873;28;20506;-63
2021/08/01 12:14:14;;;;;;;26.57;25.17;;;;;;;;;;5056544;28;20463;-63
2021/08/01 12:16:59;;;;;;;26.20;24.80;;;;;;;;;;5051054;28;20447;-63
2021/08/01 12:19:27;;;;;;;25.90;24.50;;;;;;;;;;5052395;28;21022;-63
2021/08/01 12:21:56;;;;;;;25.97;24.60;;;;;;;;;;5051204;28;20469;-63
2021/08/01 12:24:31;;;;;;;26.63;25.23;;;;;;;;;;5065804;28;20455;-63
2021/08/01 12:27:02;;;;;;;26.73;25.30;;;;;;;;;;5071334;28;20452;-63
2021/08/01 12:29:30;;;;;;;27.60;26.10;;;;;;;;;;5069611;28;20512;-63
2021/08/01 12:31:57;;;;;;;26.47;25.17;;;;;;;;;;5071043;28;20443;-63
2021/08/01 12:34:24;;;;;;;25.37;24.00;;;;;;;;;;5058997;28;20951;-63
2021/08/01 12:36:51;;;;;;;25.73;24.33;;;;;;;;;;5050963;28;20463;-63
2021/08/01 12:39:22;;;;;;;26.80;25.30;;;;;;;;;;5060924;28;20466;-63
2021/08/01 12:41:50;;;;;;;25.13;23.83;;;;;;;;;;5050783;28;20858;-63
2021/08/01 12:44:17;;;;;;;26.30;24.83;;;;;;;;;;5051572;28;20479;-63
2021/08/01 12:46:45;;;;;;;25.70;24.30;;;;;;;;;;5055269;28;20453;-63
2021/08/01 12:49:12;;;;;;;25.40;24.10;;;;;;;;;;5054354;28;20480;-63
2021/08/01 12:51:41;;;;;;;25.43;24.13;;;;;;;;;;5054908;28;20443;-63
2021/08/01 12:54:09;;;;;;;25.97;24.50;;;;;;;;;;5055016;28;20455;-63
2021/08/01 12:56:38;;;;;;;25.43;24.03;;;;;;;;;;5055099;28;20623;-63
2021/08/01 12:59:11;;;;;;;25.90;24.50;;;;;;;;;;5054288;28;20456;-63
2021/08/01 13:01:40;;;;;;;25.60;24.20;;;;;;;;;;5054962;28;20477;-63
2021/08/01 13:04:08;;;;;;;26.60;25.20;;;;;;;;;;5054662;28;20462;-63
2021/08/01 13:06:35;;;;;;;26.70;25.30;;;;;;;;;;5055051;28;20473;-63
2021/08/01 13:09:05;;;;;;;27.07;25.57;;;;;;;;;;5053489;28;20459;-63
2021/08/01 13:11:34;;;;;;;26.83;25.33;;;;;;;;;;5053770;28;21001;-63
2021/08/01 13:14:03;;;;;;;27.10;25.57;;;;;;;;;;5056875;28;20494;-63
2021/08/01 13:16:50;;;;;;;26.10;24.67;;;;;;;;;;5067299;28;20475;-63
2021/08/01 13:19:17;;;;;;;25.40;24.00;;;;;;;;;;5065601;28;20981;-63
2021/08/01 13:21:59;;;;;;;25.80;24.30;;;;;;;;;;5081602;22;20498;-63
2021/08/01 13:24:33;;;;;;;24.50;23.20;;;;;;;;;;5072670;28;20486;-63
2021/08/01 13:27:00;;;;;;;24.80;23.50;;;;;;;;;;5076668;28;20435;-63
2021/08/01 13:29:29;;;;;;;25.00;23.70;;;;;;;;;;5063801;28;20492;-65
2021/08/01 13:31:56;;;;;;;25.77;24.27;;;;;;;;;;5076138;28;20816;-63
2021/08/01 13:34:36;;;;;;;25.40;24.10;;;;;;;;;;5058991;28;20454;-64
2021/08/01 13:37:03;;;;;;;25.93;24.53;;;;;;;;;;5065209;28;20817;-64
2021/08/01 13:39:31;;;;;;;25.90;24.50;;;;;;;;;;5055610;28;20460;-64
2021/08/01 13:42:05;;;;;;;26.07;24.67;;;;;;;;;;5046724;28;20476;-63
2021/08/01 13:44:35;;;;;;;24.70;23.40;;;;;;;;;;5036700;28;20428;-63
2021/08/01 13:47:09;;;;;;;24.87;23.60;;;;;;;;;;5043589;28;20452;-63
2021/08/01 13:49:37;;;;;;;24.90;23.60;;;;;;;;;;5048775;28;20490;-65
2021/08/01 13:52:04;;;;;;;24.03;22.80;;;;;;;;;;5055581;28;20837;-65
2021/08/01 13:54:31;;;;;;;24.50;23.20;;;;;;;;;;5056770;28;20465;-63
2021/08/01 13:56:58;;;;;;;25.00;23.60;;;;;;;;;;5056895;28;20462;-66
2021/08/01 13:59:25;;;;;;;31.00;29.30;;;;;;;;;;5042074;28;20461;-66
2021/08/01 14:01:54;;;;;;;38.97;36.87;;;;;;;;;;5033631;28;20465;-66
2021/08/01 14:04:21;;;;;;;43.77;41.47;;;;;;;;;;5052758;28;20965;-66
2021/08/01 14:06:48;;;;;;;39.23;37.00;;;;;;;;;;5053498;28;20452;-66
2021/08/01 14:09:15;;;;;;;37.80;35.80;;;;;;;;;;5053985;28;20452;-67
2021/08/01 14:11:42;;;;;;;39.03;36.87;;;;;;;;;;5066225;28;20854;-67
2021/08/01 14:14:09;;;;;;;36.20;34.10;;;;;;;;;;5067497;28;20452;-66
2021/08/01 14:16:37;;;;;;;36.00;34.00;;;;;;;;;;5053714;28;21272;-70
2021/08/01 14:19:05;;;;;;;37.60;35.70;;;;;;;;;;5054165;28;20452;-68
2021/08/01 14:21:32;;;;;;;110.73;105.90;;;;;;;;;;5052023;28;20480;-68